Aérodrome :
LOGIN :

S'inscrire | Disclaimer

   EN    FR    IT 

 










Légende :    VFR   VFR Marginal   IFR   IFR Intensif   IFR Très Intensif
Visi : 
Plafond : 
>= 8 km
>= 3000ft
5 à 8 km
1000 à 3000 ft
1500m à 5 km
500 à 1000 ft
800 à 1500m
200 à 500 ft
< 800m
< 200 ft
Symboles :   Orages  Brouillard  Fortes neiges  Fortes précipitations  Vent > 20 kt
SIGMETs :   Divers  Orages  Givrage  Turbulence  Onde Orograph.  Cendres Volcan.






- Altitude de l'aérodrome : 157 ft
- Code IATA : LIL


LFQQ - Lille Lesquin

DERNIER METAR :
  • 130930Z AUTO 28026KT 9999 -RA BKN015/// OVC020/// ///TCU 05/04 Q0976 TEMPO 3000 SHRA BKN012 BKN025CB BECMG 27020G35KT

METARs EXPIRÉS :
  • 130900Z AUTO 28015KT 9999 -RA FEW009/// OVC014/// ///TCU 06/05 Q0975 TEMPO 3000 SHRA BKN012 BKN025CB BECMG 27020G35KT
  • 130830Z AUTO 28021KT 9999 -RA BKN015/// OVC023/// ///TCU 06/04 Q0974 TEMPO 3000 SHRA BKN012 BKN025CB BECMG 27020G35KT
  • 130800Z AUTO 27020KT 9999 -RA BKN014/// OVC019/// ///TCU 06/05 Q0974 TEMPO 3000 SHRA BKN012 BKN025CB BECMG 27020G35KT
  • 130730Z AUTO 26020KT 9999 -DZ OVC015 06/05 Q0973 TEMPO 3000 SHRA BKN012 BKN025CB BECMG 27020G35KT
  • 130700Z AUTO 26017KT 9999 -DZ BKN016 OVC024 06/05 Q0972 TEMPO 3000 SHRA BKN012 BKN025CB BECMG 27020G35KT

TAF TAF LFQQ
Valide du 13 à 06h jusqu'au 14 à 12h UTC


130500Z 1306/1412 27020G35KT 9999 BKN025
TEMPO 1306/1311 3000 SHRA BKN012 BKN025CB
BECMG 1314/1316 27015KT
TEMPO 1323/1404 3000 RA BKN013 OVC030
BECMG 1404/1406 25020G30KT
TEMPO 1410/1412 25025G40KT 4000 SHRA BKN030TCU
ATIS : +33 3 20 16 19 54



MET'MAP, la Météo Aéronautique d'un coup d'oeil ! - Copyright ORBIFLY Décembre 2007 - Disclaimer

ORBIFLY MET'MAP TEAM :

Programmation & Développement : Alexandra Zaïnal
Sur une idée originale de : Baudouin d'Aumeries
Assistance à la programmation : Marc-Olivier Méhu
Soutien technique & logistique : Manuel Goepfert

Contact : metmap@orbifly.com




SOURCES & CREDITS :

   NOAA